Time;durP1;ratioP1;P1;durP2;ratioP2;P2;SDS_P1;SDS_P2;PMS_P1;PMS_P2;Temp;Humidity;BMP_temperature;BMP_pressure;BME280_temperature;BME280_humidity;BME280_pressure;Samples;Min_cycle;Max_cycle;Signal;HPM_P1;HPM_P2
2022/05/20 00:01:16;;;;;;;0.57;0.57;;;;;;;13.28;61.75;100342.97;4953862;29;20502;-67
2022/05/20 00:03:46;;;;;;;0.60;0.60;;;;;;;13.27;61.54;100338.66;4955033;29;20051;-67
2022/05/20 00:06:24;;;;;;;0.40;0.40;;;;;;;13.25;61.30;100344.66;4955014;29;20316;-66
2022/05/20 00:08:55;;;;;;;0.30;0.30;;;;;;;13.28;61.37;100345.53;4955318;29;20051;-65
2022/05/20 00:11:26;;;;;;;0.50;0.50;;;;;;;13.28;61.25;100335.25;4954805;29;20055;-65
2022/05/20 00:13:55;;;;;;;0.60;0.60;;;;;;;13.26;61.40;100334.41;4955496;29;20497;-67
2022/05/20 00:16:24;;;;;;;0.53;0.53;;;;;;;13.12;61.44;100313.06;4955176;29;20079;-66
2022/05/20 00:18:53;;;;;;;0.40;0.40;;;;;;;13.24;60.88;100330.16;4954788;29;20086;-66
2022/05/20 00:21:22;;;;;;;1.05;0.93;;;;;;;13.27;61.08;100332.69;4954835;29;20111;-66
2022/05/20 00:23:51;;;;;;;0.50;0.50;;;;;;;13.26;60.82;100328.44;4954796;29;20083;-66
2022/05/20 00:26:20;;;;;;;0.63;0.60;;;;;;;13.24;60.73;100327.59;4954936;29;20047;-66
2022/05/20 00:28:53;;;;;;;0.32;0.32;;;;;;;12.92;61.02;100291.69;4957109;28;20822;-67
2022/05/20 00:31:24;;;;;;;0.30;0.30;;;;;;;13.13;61.06;100340.41;4958467;29;20058;-66
2022/05/20 00:33:54;;;;;;;0.47;0.47;;;;;;;13.18;60.95;100343.81;4958242;29;20043;-67
2022/05/20 00:36:23;;;;;;;1.83;1.17;;;;;;;13.19;60.76;100335.28;4958271;29;20047;-65
2022/05/20 00:38:52;;;;;;;0.60;0.60;;;;;;;13.20;60.48;100328.41;4958440;29;20382;-66
2022/05/20 00:41:21;;;;;;;0.50;0.50;;;;;;;13.19;60.44;100335.28;4958161;29;20106;-67
2022/05/20 00:43:52;;;;;;;0.73;0.70;;;;;;;12.21;60.30;100173.03;4958093;29;20051;-67
2022/05/20 00:46:23;;;;;;;0.85;0.70;;;;;;;13.14;60.61;100331.88;4958446;29;20163;-67
2022/05/20 00:49:00;;;;;;;0.57;0.57;;;;;;;13.12;60.69;100333.59;4958032;29;20111;-65
2022/05/20 00:51:34;;;;;;;0.50;0.50;;;;;;;13.11;60.68;100331.84;4958050;29;20051;-67
2022/05/20 00:54:09;;;;;;;0.65;0.65;;;;;;;12.90;60.80;100290.84;4957890;29;20055;-67
2022/05/20 00:56:42;;;;;;;0.90;0.77;;;;;;;13.06;60.66;100328.44;4957883;29;20063;-65
2022/05/20 00:59:19;;;;;;;0.50;0.50;;;;;;;13.00;60.91;100318.19;4957834;29;20547;-65
2022/05/20 01:01:49;;;;;;;0.52;0.52;;;;;;;12.99;61.14;100316.44;4957905;29;20070;-67
2022/05/20 01:04:20;;;;;;;0.85;0.85;;;;;;;12.98;61.08;100311.34;4958313;29;20058;-66
2022/05/20 01:06:50;;;;;;;0.43;0.43;;;;;;;12.90;61.23;100316.47;4958101;29;20055;-66
2022/05/20 01:09:19;;;;;;;;;;;;;;;12.83;61.63;100314.75;4958624;29;20055;-65
2022/05/20 01:11:48;;;;;;;0.40;0.40;;;;;;;12.80;61.77;100309.63;4957470;29;19922;-66
2022/05/20 01:14:23;;;;;;;0.85;0.85;;;;;;;12.65;62.83;100307.03;4957592;29;20134;-64
2022/05/20 01:16:56;;;;;;;0.70;0.70;;;;;;;12.72;62.38;100311.31;4957477;29;20102;-66
2022/05/20 01:19:35;;;;;;;0.40;0.40;;;;;;;12.69;62.36;100309.59;4957746;29;20063;-65
2022/05/20 01:22:51;;;;;;;0.77;0.77;;;;;;;12.34;62.27;100238.72;4957461;29;20138;-66
2022/05/20 01:25:24;;;;;;;0.50;0.50;;;;;;;12.71;62.50;100299.38;4957700;29;20050;-66
2022/05/20 01:27:53;;;;;;;0.50;0.50;;;;;;;12.71;62.53;100295.13;4940462;29;20510;-64
2022/05/20 01:30:24;;;;;;;0.60;0.60;;;;;;;12.72;62.42;100301.06;4957190;29;20051;-64
2022/05/20 01:32:56;;;;;;;0.50;0.50;;;;;;;12.54;62.36;100285.69;4957278;29;20485;-66
2022/05/20 01:35:32;;;;;;;0.70;0.70;;;;;;;12.61;62.46;100302.78;4957859;29;20051;-66
2022/05/20 01:38:01;;;;;;;0.52;0.52;;;;;;;12.43;62.59;100274.59;4957215;29;20138;-64
2022/05/20 01:40:40;;;;;;;0.50;0.50;;;;;;;12.61;62.75;100306.19;4956072;28;20414;-66
2022/05/20 01:43:17;;;;;;;1.77;1.65;;;;;;;12.64;62.44;100307.91;4957171;29;20059;-64
2022/05/20 01:45:57;;;;;;;0.50;0.50;;;;;;;12.63;62.44;100301.06;4956202;29;20048;-64
2022/05/20 01:48:40;;;;;;;0.60;0.60;;;;;;;12.55;62.65;100308.75;4956981;29;20122;-66
2022/05/20 01:51:14;;;;;;;0.73;0.68;;;;;;;12.53;62.66;100307.03;4957197;29;20426;-64
2022/05/20 01:53:51;;;;;;;1.00;0.95;;;;;;;12.48;63.09;100311.28;4956894;29;20109;-64
2022/05/20 01:56:29;;;;;;;0.40;0.40;;;;;;;12.48;63.00;100299.34;4956853;29;20079;-65
2022/05/20 01:59:03;;;;;;;0.40;0.40;;;;;;;12.40;62.61;100288.25;4956821;29;20485;-66
2022/05/20 02:01:39;;;;;;;0.65;0.63;;;;;;;12.52;62.81;100305.34;4956777;29;20510;-66
2022/05/20 02:04:13;;;;;;;0.50;0.50;;;;;;;12.52;63.08;100320.69;4956692;29;20063;-66
2022/05/20 02:06:58;;;;;;;0.57;0.50;;;;;;;12.48;63.19;100318.97;4957314;29;20110;-66
2022/05/20 02:09:36;;;;;;;0.50;0.50;;;;;;;12.48;63.08;100316.41;4955839;29;20047;-64
2022/05/20 02:12:08;;;;;;;1.48;0.80;;;;;;;12.47;62.94;100309.59;4956070;29;20075;-65
2022/05/20 02:14:43;;;;;;;0.70;0.70;;;;;;;12.46;63.52;100307.88;4956446;29;20134;-64
2022/05/20 02:17:16;;;;;;;1.33;0.82;;;;;;;12.40;63.70;100300.19;4956802;29;20055;-64
2022/05/20 02:20:00;;;;;;;0.32;0.32;;;;;;;12.37;63.62;100295.06;4956593;29;20520;-64
2022/05/20 02:22:34;;;;;;;0.50;0.50;;;;;;;12.40;64.01;100302.75;4956288;29;20057;-66
2022/05/20 02:25:06;;;;;;;0.88;0.88;;;;;;;12.39;63.96;100298.47;4956291;29;20070;-64
2022/05/20 02:27:42;;;;;;;0.40;0.40;;;;;;;12.39;64.15;100296.78;4956307;29;20078;-64
2022/05/20 02:30:14;;;;;;;0.70;0.70;;;;;;;11.98;64.01;100232.72;4956599;29;20592;-66
2022/05/20 02:32:48;;;;;;;2.85;1.55;;;;;;;12.35;64.27;100294.22;4552551;23;22975;-65
2022/05/20 02:35:17;;;;;;;1.05;0.95;;;;;;;12.30;64.44;100301.88;4994824;28;20038;-65
2022/05/20 02:37:46;;;;;;;0.50;0.50;;;;;;;12.26;65.17;100312.94;4994013;28;20116;-65
2022/05/20 02:40:18;;;;;;;0.50;0.50;;;;;;;12.25;65.47;100308.69;4994810;28;20050;-65
2022/05/20 02:42:49;;;;;;;0.32;0.32;;;;;;;12.29;65.00;100295.03;4994824;28;20054;-65
2022/05/20 02:45:18;;;;;;;0.40;0.40;;;;;;;12.13;64.93;100266.84;4994631;28;20109;-66
2022/05/20 02:47:47;;;;;;;0.57;0.57;;;;;;;12.31;65.07;100302.75;4994303;28;20050;-65
2022/05/20 02:50:17;;;;;;;16.60;1.42;;;;;;;12.24;65.29;100290.78;4994475;28;20082;-65
2022/05/20 02:52:46;;;;;;;0.55;0.55;;;;;;;12.21;65.67;100280.53;4994547;28;20049;-65
2022/05/20 02:55:15;;;;;;;0.40;0.40;;;;;;;12.23;65.43;100281.38;4994112;28;20042;-65
2022/05/20 02:57:48;;;;;;;0.87;0.60;;;;;;;12.31;65.12;100283.09;4994469;28;20101;-65
2022/05/20 03:05:36;;;;;;;1.33;1.23;;;;;;;12.28;65.50;100297.59;4994415;28;20128;-65
2022/05/20 03:08:06;;;;;;;0.73;0.57;;;;;;;12.25;65.48;100302.72;4994963;28;20050;-65
2022/05/20 03:10:44;;;;;;;1.38;1.20;;;;;;;12.17;65.84;100309.50;4994005;28;20054;-65
2022/05/20 03:13:15;;;;;;;4.18;1.10;;;;;;;12.12;66.29;100306.09;4994168;28;20456;-66
2022/05/20 03:15:44;;;;;;;0.22;0.22;;;;;;;12.17;66.35;100314.63;4994211;28;20058;-66
2022/05/20 03:18:14;;;;;;;0.80;0.80;;;;;;;12.16;66.11;100300.13;4994541;28;20120;-66
2022/05/20 03:20:44;;;;;;;0.52;0.52;;;;;;;12.12;66.66;100290.75;4994383;28;20500;-65
2022/05/20 03:23:12;;;;;;;0.82;0.82;;;;;;;12.12;66.45;100286.47;4993706;28;20042;-65
2022/05/20 03:25:41;;;;;;;0.40;0.40;;;;;;;12.11;66.58;100289.88;4993971;28;20419;-65
2022/05/20 03:28:15;;;;;;;0.68;0.68;;;;;;;12.16;66.70;100282.22;4994188;28;20058;-65
2022/05/20 03:30:45;;;;;;;0.52;0.52;;;;;;;12.13;67.33;100277.94;4993856;28;20054;-65
2022/05/20 03:33:14;;;;;;;0.57;0.57;;;;;;;12.12;67.64;100262.59;4993793;28;20050;-65
2022/05/20 03:35:48;;;;;;;0.55;0.55;;;;;;;12.10;67.76;100263.44;4994264;28;20046;-65
2022/05/20 03:38:17;;;;;;;0.60;0.60;;;;;;;12.14;67.93;100258.34;4994018;28;20050;-65
2022/05/20 03:40:46;;;;;;;0.60;0.60;;;;;;;12.20;67.93;100253.22;4993950;28;20042;-65
2022/05/20 03:43:16;;;;;;;0.50;0.50;;;;;;;12.25;67.84;100259.19;4994327;28;20054;-65
2022/05/20 03:45:45;;;;;;;0.70;0.68;;;;;;;12.25;68.08;100261.75;4976647;28;20047;-66
2022/05/20 03:48:14;;;;;;;3.07;1.20;;;;;;;12.24;68.40;100260.91;4993930;28;20150;-65
2022/05/20 03:50:50;;;;;;;0.60;0.55;;;;;;;12.30;68.50;100265.19;4993540;28;20055;-65
2022/05/20 03:53:19;;;;;;;0.60;0.60;;;;;;;12.43;67.67;100259.25;4993876;28;20105;-65
2022/05/20 03:55:48;;;;;;;1.23;0.95;;;;;;;12.56;67.17;100258.38;4993675;28;20347;-66
2022/05/20 03:58:18;;;;;;;0.70;0.70;;;;;;;12.64;66.75;100264.38;4993816;28;20046;-66
2022/05/20 04:03:26;;;;;;;7.03;1.85;;;;;;;12.82;66.08;100266.91;4995705;28;20054;-66
2022/05/20 04:05:55;;;;;;;0.83;0.80;;;;;;;12.89;65.61;100253.25;4997449;28;20076;-66
2022/05/20 04:08:24;;;;;;;2.35;0.70;;;;;;;12.97;65.28;100256.66;4997512;28;20276;-66
2022/05/20 04:10:53;;;;;;;0.60;0.60;;;;;;;13.04;64.83;100252.38;4997616;28;20117;-65
2022/05/20 04:13:23;;;;;;;0.87;0.87;;;;;;;13.10;64.64;100260.94;4997514;28;20081;-65
2022/05/20 04:15:54;;;;;;;0.50;0.50;;;;;;;13.16;64.45;100272.91;4997562;28;20645;-66
2022/05/20 04:18:23;;;;;;;0.60;0.60;;;;;;;13.23;64.21;100279.72;4997509;28;20058;-65
2022/05/20 04:20:52;;;;;;;0.68;0.60;;;;;;;13.33;64.63;100292.53;4997428;28;20057;-66
2022/05/20 04:23:21;;;;;;;0.55;0.55;;;;;;;13.41;64.30;100287.38;4996944;28;20056;-66
2022/05/20 04:25:50;;;;;;;0.60;0.60;;;;;;;13.26;64.42;100260.06;4997507;28;20046;-65
2022/05/20 04:28:19;;;;;;;0.50;0.50;;;;;;;13.53;64.18;100295.06;4997157;28;20106;-65
2022/05/20 04:30:50;;;;;;;0.80;0.80;;;;;;;13.69;63.56;100285.59;4997409;28;20101;-65
2022/05/20 04:33:19;;;;;;;0.40;0.40;;;;;;;13.83;63.26;100291.50;4996975;28;20082;-66
2022/05/20 04:35:49;;;;;;;0.52;0.52;;;;;;;13.96;62.83;100281.16;4997346;28;20499;-66
2022/05/20 04:38:18;;;;;;;0.55;0.55;;;;;;;14.09;62.55;100282.84;4996577;28;20053;-66
2022/05/20 04:46:56;;;;;;;0.50;0.50;;;;;;;14.17;62.46;100280.22;4997195;28;20042;-66
2022/05/20 04:49:10;;;;;;;1.52;1.20;;;;;;;14.60;60.65;100302.25;4996884;28;20057;-65
2022/05/20 04:51:45;;;;;;;0.57;0.57;;;;;;;14.75;60.09;100306.41;4997117;28;20084;-66
2022/05/20 04:56:56;;;;;;;0.50;0.50;;;;;;;14.87;59.63;100295.19;4996788;28;20492;-65
2022/05/20 04:59:25;;;;;;;0.50;0.50;;;;;;;14.96;59.01;100295.09;4996636;28;20054;-65
2022/05/20 05:01:56;;;;;;;0.43;0.43;;;;;;;14.96;58.02;100290.81;4996996;28;20054;-65
2022/05/20 05:04:25;;;;;;;0.70;0.70;;;;;;;15.02;57.66;100298.47;4996631;28;20058;-65
2022/05/20 05:06:54;;;;;;;0.53;0.53;;;;;;;15.12;57.13;100301.81;4996573;28;20054;-65
2022/05/20 05:09:26;;;;;;;0.50;0.47;;;;;;;15.14;56.46;100302.66;4996505;28;20038;-65
2022/05/20 05:12:03;;;;;;;0.70;0.70;;;;;;;15.17;56.04;100300.03;4996847;28;20054;-65
2022/05/20 05:14:38;;;;;;;0.77;0.75;;;;;;;15.15;55.42;100315.50;4996339;28;20062;-65
2022/05/20 05:17:11;;;;;;;0.90;0.90;;;;;;;15.16;55.37;100318.94;4996326;28;20115;-65
2022/05/20 05:19:41;;;;;;;1.25;0.98;;;;;;;15.20;55.02;100328.31;4996309;28;20113;-65
2022/05/20 05:22:10;;;;;;;0.50;0.50;;;;;;;15.26;55.37;100328.28;4996368;28;20085;-64
2022/05/20 05:24:40;;;;;;;1.07;0.97;;;;;;;15.36;54.77;100335.00;4997024;28;20554;-65
2022/05/20 05:27:09;;;;;;;0.60;0.60;;;;;;;15.46;54.75;100328.94;4996449;28;20566;-65
2022/05/20 05:29:38;;;;;;;0.55;0.55;;;;;;;15.47;54.19;100325.50;4996095;28;20054;-65
2022/05/20 05:32:10;;;;;;;1.13;1.02;;;;;;;15.52;54.26;100318.59;4978745;28;20577;-65
2022/05/20 05:34:39;;;;;;;1.10;0.88;;;;;;;15.60;54.29;100305.63;4996017;28;20058;-64
2022/05/20 05:37:10;;;;;;;0.88;0.88;;;;;;;15.64;54.44;100318.47;4995941;28;20133;-65
2022/05/20 05:39:39;;;;;;;0.60;0.60;;;;;;;15.79;54.22;100302.84;4995925;28;20097;-65
2022/05/20 05:42:11;;;;;;;0.50;0.50;;;;;;;15.90;53.70;100301.00;4995965;28;20043;-64
2022/05/20 05:44:40;;;;;;;0.90;0.70;;;;;;;16.01;53.49;100296.56;4995357;28;20288;-64
2022/05/20 05:47:10;;;;;;;0.67;0.67;;;;;;;16.18;53.17;100295.47;4995567;28;20070;-65
2022/05/20 05:49:39;;;;;;;0.63;0.63;;;;;;;16.29;53.05;100298.78;4995508;28;20327;-64
2022/05/20 05:52:08;;;;;;;2.42;1.20;;;;;;;16.41;53.49;100298.59;4995635;28;20109;-64
2022/05/20 05:54:40;;;;;;;0.60;0.60;;;;;;;16.40;54.45;100302.03;4995545;28;20726;-64
2022/05/20 05:57:10;;;;;;;0.75;0.75;;;;;;;16.31;55.22;100291.88;4978090;28;20432;-65
2022/05/20 05:59:40;;;;;;;0.90;0.75;;;;;;;16.46;55.57;100307.13;4995440;28;20050;-66
2022/05/20 06:02:11;;;;;;;1.17;1.10;;;;;;;16.66;55.77;100299.94;4995266;28;20101;-66
2022/05/20 06:04:50;;;;;;;0.70;0.70;;;;;;;16.85;54.85;100291.03;4995557;28;20508;-65
2022/05/20 06:07:20;;;;;;;0.35;0.35;;;;;;;16.71;53.28;100259.47;4995716;28;20173;-65
2022/05/20 06:09:49;;;;;;;;;;;;;;;17.03;52.20;100295.91;4995749;28;20054;-65
2022/05/20 06:12:21;;;;;;;0.55;0.55;;;;;;;17.11;51.37;100288.00;4995312;28;19922;-65
2022/05/20 06:14:50;;;;;;;0.80;0.80;;;;;;;17.20;50.75;100291.28;4995237;28;20137;-65
2022/05/20 06:17:31;;;;;;;1.20;0.82;;;;;;;17.30;50.60;100290.25;4995135;28;20050;-66
2022/05/20 06:20:06;;;;;;;0.60;0.60;;;;;;;17.49;50.68;100288.19;4995456;28;20432;-66
2022/05/20 06:22:44;;;;;;;0.50;0.50;;;;;;;17.72;50.73;100287.75;4995179;28;20078;-66
2022/05/20 06:25:13;;;;;;;0.80;0.80;;;;;;;17.85;50.30;100304.72;4994701;28;20062;-66
2022/05/20 06:27:42;;;;;;;0.82;0.82;;;;;;;18.05;50.62;100312.91;4994848;28;20504;-66
2022/05/20 06:30:14;;;;;;;0.50;0.50;;;;;;;18.29;51.43;100317.53;4995003;28;20049;-66
2022/05/20 06:32:45;;;;;;;0.60;0.60;;;;;;;18.48;52.02;100308.53;4991129;28;20054;-69
2022/05/20 06:40:36;;;;;;;0.90;0.88;;;;;;;18.73;52.96;100311.41;4994906;28;19922;-70
2022/05/20 06:43:05;;;;;;;0.60;0.60;;;;;;;18.83;52.73;100315.47;4977661;28;20082;-69
2022/05/20 06:45:47;;;;;;;0.75;0.75;;;;;;;19.09;52.56;100327.75;4977410;28;20058;-70
2022/05/20 06:49:28;;;;;;;0.57;0.57;;;;;;;19.40;52.01;100333.91;4935064;29;20051;-69
2022/05/20 06:52:00;;;;;;;0.80;0.80;;;;;;;19.55;51.37;100330.91;4954081;29;20433;-69
2022/05/20 06:54:49;;;;;;;0.70;0.70;;;;;;;19.70;51.31;100327.06;4938224;29;20479;-69
2022/05/20 06:57:24;;;;;;;0.73;0.73;;;;;;;19.90;51.08;100330.78;4953685;29;20126;-68
2022/05/20 06:59:54;;;;;;;0.50;0.50;;;;;;;20.02;49.99;100330.44;4953878;29;20624;-68
2022/05/20 07:02:23;;;;;;;;;;;;;;;20.19;50.06;100323.91;4954086;29;20457;-68
2022/05/20 07:05:03;;;;;;;0.40;0.40;;;;;;;20.28;48.53;100316.72;4954083;29;19926;-69
2022/05/20 07:07:32;;;;;;;0.60;0.60;;;;;;;20.36;48.31;100319.09;4953906;29;20047;-68
2022/05/20 07:10:02;;;;;;;0.40;0.40;;;;;;;20.62;47.93;100321.72;4954250;29;20047;-68
2022/05/20 07:12:31;;;;;;;0.55;0.55;;;;;;;20.78;47.09;100322.09;4953602;29;20572;-68
2022/05/20 07:15:01;;;;;;;1.00;0.93;;;;;;;20.73;45.23;100330.03;4953576;29;20047;-68
2022/05/20 07:17:36;;;;;;;0.50;0.50;;;;;;;20.84;45.00;100322.75;4953543;29;20391;-68
2022/05/20 07:20:10;;;;;;;0.60;0.60;;;;;;;20.65;43.53;100322.50;4953570;29;20051;-68
2022/05/20 07:22:39;;;;;;;0.80;0.73;;;;;;;20.52;43.89;100320.31;4954038;29;20644;-68
2022/05/20 07:25:09;;;;;;;0.60;0.60;;;;;;;20.47;43.66;100317.00;4953416;29;20514;-68
2022/05/20 07:27:38;;;;;;;0.40;0.40;;;;;;;20.40;43.54;100310.31;4993469;28;20599;-68
2022/05/20 07:30:09;;;;;;;0.50;0.50;;;;;;;20.39;44.30;100313.81;4994616;28;20057;-69
2022/05/20 07:32:38;;;;;;;0.60;0.60;;;;;;;20.42;44.31;100303.38;4993726;28;20508;-67
2022/05/20 07:35:10;;;;;;;0.60;0.60;;;;;;;20.32;44.71;100282.06;4994319;28;20073;-68
2022/05/20 07:37:40;;;;;;;0.88;0.73;;;;;;;20.37;44.64;100289.69;4994985;28;20287;-68
2022/05/20 07:40:10;;;;;;;0.70;0.70;;;;;;;20.41;44.44;100286.09;4998142;28;20062;-68
2022/05/20 07:42:42;;;;;;;0.57;0.57;;;;;;;20.54;45.14;100264.91;4998102;28;20088;-69
2022/05/20 07:45:12;;;;;;;1.25;1.15;;;;;;;20.75;44.59;100259.94;4998077;28;20133;-68
2022/05/20 07:47:41;;;;;;;0.65;0.65;;;;;;;21.04;43.66;100272.78;4998252;28;20051;-68
2022/05/20 07:50:13;;;;;;;0.47;0.47;;;;;;;21.13;42.98;100281.13;4998280;28;20113;-68
2022/05/20 07:55:26;;;;;;;1.40;0.80;;;;;;;21.29;43.65;100295.28;4997950;28;20065;-68
2022/05/20 07:57:55;;;;;;;0.40;0.40;;;;;;;21.51;43.60;100284.13;4997721;28;20081;-68
2022/05/20 08:00:28;;;;;;;1.52;0.82;;;;;;;21.52;42.92;100293.63;4997875;28;20133;-68
2022/05/20 08:03:01;;;;;;;0.73;0.73;;;;;;;21.47;42.94;100292.94;4998053;28;20126;-68
2022/05/20 08:05:32;;;;;;;0.60;0.60;;;;;;;21.33;42.77;100296.88;4997626;28;20082;-68
2022/05/20 08:08:06;;;;;;;0.70;0.70;;;;;;;21.29;44.73;100302.22;4997945;28;20142;-68
2022/05/20 08:10:38;;;;;;;0.50;0.50;;;;;;;21.13;44.09;100288.94;4997543;28;20089;-68
2022/05/20 08:13:13;;;;;;;3.40;1.58;;;;;;;21.33;44.03;100309.84;4997869;28;20051;-68
2022/05/20 08:15:42;;;;;;;0.50;0.50;;;;;;;21.57;44.14;100309.91;4997350;28;20054;-68
2022/05/20 08:18:21;;;;;;;0.55;0.55;;;;;;;21.70;42.66;100305.97;4997695;28;20062;-69
2022/05/20 08:20:52;;;;;;;0.65;0.65;;;;;;;21.69;41.62;100304.28;4997772;28;20054;-68
2022/05/20 08:23:30;;;;;;;0.80;0.80;;;;;;;21.67;41.83;100301.72;4997868;28;20145;-68
2022/05/20 08:25:59;;;;;;;1.83;0.73;;;;;;;21.62;42.26;100308.00;4997667;28;20054;-68
2022/05/20 08:28:28;;;;;;;0.85;0.85;;;;;;;21.41;42.11;100314.78;4997456;28;20417;-68
2022/05/20 08:30:57;;;;;;;0.80;0.80;;;;;;;21.28;42.55;100309.16;4997064;28;20046;-68
2022/05/20 08:33:26;;;;;;;1.05;0.98;;;;;;;21.30;43.74;100309.13;4997271;28;20043;-69
2022/05/20 08:35:57;;;;;;;0.50;0.50;;;;;;;21.25;44.82;100305.84;4996907;28;20133;-68
2022/05/20 08:38:27;;;;;;;0.68;0.57;;;;;;;21.23;45.02;100305.91;4997344;28;20065;-68
2022/05/20 08:40:56;;;;;;;0.68;0.68;;;;;;;21.16;44.02;100299.19;4997255;28;20050;-68
2022/05/20 08:43:31;;;;;;;0.80;0.80;;;;;;;20.94;43.71;100293.00;4997430;28;20042;-68
2022/05/20 08:46:01;;;;;;;0.47;0.47;;;;;;;20.99;43.10;100288.50;4997161;28;20054;-69
2022/05/20 08:48:30;;;;;;;1.38;0.82;;;;;;;21.09;43.70;100287.31;4996362;28;20141;-69
2022/05/20 08:51:01;;;;;;;;;;;;;;;21.30;43.65;100286.59;4997290;28;20062;-69
2022/05/20 08:53:42;;;;;;;0.50;0.50;;;;;;;21.54;43.11;100289.22;4997135;28;19922;-69
2022/05/20 08:56:14;;;;;;;0.45;0.45;;;;;;;21.81;42.43;100293.44;4996823;28;20133;-69
2022/05/20 08:58:51;;;;;;;0.45;0.45;;;;;;;22.06;42.86;100283.84;4996646;28;20047;-69
2022/05/20 09:01:28;;;;;;;0.40;0.40;;;;;;;22.31;42.98;100289.81;4996986;28;20132;-68
2022/05/20 09:03:57;;;;;;;0.50;0.50;;;;;;;22.46;41.20;100276.19;4997011;28;20444;-67
2022/05/20 09:06:31;;;;;;;0.50;0.50;;;;;;;22.60;39.07;100276.47;4996472;28;20045;-67
2022/05/20 09:09:08;;;;;;;0.60;0.60;;;;;;;22.70;39.39;100276.16;4996623;28;20138;-67
2022/05/20 09:11:42;;;;;;;0.70;0.70;;;;;;;22.73;40.29;100271.66;4996400;28;20054;-68
2022/05/20 09:17:11;;;;;;;0.55;0.55;;;;;;;22.40;39.89;100266.03;4996965;28;20373;-68
2022/05/20 09:19:54;;;;;;;0.57;0.57;;;;;;;22.32;41.52;100260.28;4996266;28;20057;-68
2022/05/20 09:22:29;;;;;;;1.92;1.42;;;;;;;22.36;41.75;100256.63;4996342;28;20644;-68
2022/05/20 09:24:59;;;;;;;1.75;0.95;;;;;;;22.27;42.15;100257.00;4996169;28;20059;-68
2022/05/20 09:27:32;;;;;;;0.70;0.70;;;;;;;22.32;42.27;100249.88;4996229;28;20515;-68
2022/05/20 09:30:07;;;;;;;0.50;0.50;;;;;;;22.35;43.29;100244.56;4996437;28;20082;-68
2022/05/20 09:32:39;;;;;;;0.77;0.63;;;;;;;22.43;42.67;100252.91;4996324;28;20572;-68
2022/05/20 09:35:15;;;;;;;0.52;0.52;;;;;;;22.49;42.38;100237.03;4996338;28;20563;-69
2022/05/20 09:37:47;;;;;;;0.57;0.57;;;;;;;22.62;42.28;100235.66;4995944;28;20128;-69
2022/05/20 09:40:41;;;;;;;0.70;0.70;;;;;;;22.94;42.64;100208.25;4995901;28;20042;-68
2022/05/20 09:43:25;;;;;;;0.50;0.50;;;;;;;23.34;41.92;100223.88;4996213;28;20058;-68
2022/05/20 09:45:56;;;;;;;0.65;0.65;;;;;;;23.58;41.06;100229.78;4996163;28;20097;-68
2022/05/20 09:48:36;;;;;;;0.73;0.65;;;;;;;23.71;41.08;100217.88;4995830;28;20065;-69
2022/05/20 09:51:13;;;;;;;1.00;0.70;;;;;;;23.82;40.71;100227.81;4978779;28;20058;-68
2022/05/20 09:53:45;;;;;;;0.50;0.50;;;;;;;23.80;39.85;100222.66;4995760;28;20061;-69
2022/05/20 09:56:25;;;;;;;1.15;0.70;;;;;;;23.85;40.05;100219.84;4995764;28;20500;-69
2022/05/20 09:59:09;;;;;;;0.60;0.60;;;;;;;23.88;40.24;100227.50;4995561;28;20050;-70
2022/05/20 10:01:54;;;;;;;0.60;0.60;;;;;;;23.77;40.41;100211.53;4994713;28;20137;-68
2022/05/20 10:04:47;;;;;;;0.60;0.60;;;;;;;23.97;40.74;100208.84;4995187;28;20053;-68
2022/05/20 10:07:29;;;;;;;0.50;0.50;;;;;;;24.05;39.95;100211.94;4995467;28;20061;-68
2022/05/20 10:10:29;;;;;;;0.60;0.60;;;;;;;24.15;39.77;100214.97;4995696;28;20586;-68
2022/05/20 10:13:03;;;;;;;0.55;0.55;;;;;;;23.99;38.97;100184.38;4975911;28;20086;-68
2022/05/20 10:15:42;;;;;;;0.65;0.65;;;;;;;24.18;39.65;100207.88;4975230;28;20047;-69
2022/05/20 10:18:22;;;;;;;0.60;0.60;;;;;;;24.34;40.82;100207.97;4975773;28;20453;-70
2022/05/20 10:20:59;;;;;;;0.50;0.50;;;;;;;24.42;41.19;100201.47;4975748;28;20051;-68
2022/05/20 10:23:34;;;;;;;0.50;0.50;;;;;;;24.62;40.25;100193.47;4975642;28;20057;-69
2022/05/20 10:26:15;;;;;;;0.47;0.47;;;;;;;24.71;40.70;100197.41;4975736;28;20075;-69
2022/05/20 10:34:14;;;;;;;0.73;0.60;;;;;;;24.43;39.33;100191.84;4975255;28;20126;-70
2022/05/20 10:36:57;;;;;;;0.60;0.60;;;;;;;24.38;39.72;100188.59;4975399;28;20046;-69
2022/05/20 10:39:41;;;;;;;0.70;0.70;;;;;;;24.43;40.08;100157.91;4975661;28;20046;-68
2022/05/20 10:42:37;;;;;;;3.05;1.52;;;;;;;24.61;39.84;100180.50;4975386;28;20055;-69
2022/05/20 10:51:04;;;;;;;0.77;0.75;;;;;;;24.64;40.38;100185.56;4975295;28;20114;-68
2022/05/20 10:53:51;;;;;;;0.70;0.70;;;;;;;24.80;40.27;100190.88;4975213;28;20129;-69
2022/05/20 10:56:40;;;;;;;5.03;0.95;;;;;;;24.93;39.73;100169.28;4975178;28;20078;-70
2022/05/20 10:59:31;;;;;;;2.38;1.60;;;;;;;24.97;39.44;100175.19;4975079;28;20059;-69
2022/05/20 11:02:14;;;;;;;0.50;0.50;;;;;;;25.09;39.31;100167.56;4975023;28;20062;-69
2022/05/20 11:05:03;;;;;;;0.70;0.70;;;;;;;25.29;39.38;100158.66;4975000;28;20062;-69
2022/05/20 11:07:57;;;;;;;0.60;0.60;;;;;;;25.53;40.17;100156.56;4975207;28;20089;-69
2022/05/20 11:10:57;;;;;;;0.50;0.50;;;;;;;25.79;39.55;100158.56;4974972;28;20497;-69
2022/05/20 11:13:41;;;;;;;0.50;0.50;;;;;;;25.86;39.71;100154.69;4970653;28;20078;-68
2022/05/20 11:16:38;;;;;;;0.93;0.65;;;;;;;25.76;40.30;100151.75;4975313;28;20456;-69
2022/05/20 11:19:32;;;;;;;0.82;0.82;;;;;;;25.89;40.71;100149.28;4975128;28;20063;-68
2022/05/20 11:22:20;;;;;;;0.60;0.60;;;;;;;26.22;39.77;100142.19;4975915;28;20469;-68
2022/05/20 11:25:15;;;;;;;1.40;0.90;;;;;;;26.42;39.39;100149.69;4975047;28;20488;-69
2022/05/20 11:28:09;;;;;;;0.90;0.82;;;;;;;26.45;39.96;100133.81;4974734;28;20493;-68
2022/05/20 11:30:53;;;;;;;0.50;0.50;;;;;;;26.73;40.82;100132.19;4974761;28;20540;-69
2022/05/20 11:33:47;;;;;;;0.57;0.57;;;;;;;26.59;40.44;100126.00;4974666;28;20050;-68
2022/05/20 11:36:46;;;;;;;2.38;1.30;;;;;;;26.35;39.24;100124.81;4974677;28;20071;-68
2022/05/20 11:39:41;;;;;;;0.57;0.57;;;;;;;26.26;39.89;100122.72;4974865;28;20047;-67
2022/05/20 11:42:20;;;;;;;1.08;0.80;;;;;;;26.32;40.47;100126.78;4974891;28;20408;-68
2022/05/20 11:45:09;;;;;;;1.08;0.88;;;;;;;26.39;40.12;100121.09;4974890;28;20082;-68
2022/05/20 11:48:14;;;;;;;0.70;0.68;;;;;;;26.52;40.78;100114.19;4974907;28;20065;-68
2022/05/20 11:51:14;;;;;;;0.65;0.65;;;;;;;26.60;41.15;100111.97;4974849;28;20457;-68
2022/05/20 11:53:48;;;;;;;0.75;0.75;;;;;;;26.63;40.69;100115.34;4972631;28;20047;-69
2022/05/20 11:56:26;;;;;;;0.65;0.60;;;;;;;26.49;41.18;100109.13;4974427;28;20050;-69
2022/05/20 11:59:03;;;;;;;0.73;0.73;;;;;;;26.42;40.65;100113.03;4974777;28;20133;-68
2022/05/20 12:01:37;;;;;;;0.85;0.85;;;;;;;26.58;40.41;100106.00;4974403;28;20058;-68
2022/05/20 12:04:08;;;;;;;1.20;1.00;;;;;;;26.83;40.35;100107.13;4974631;28;20420;-68
2022/05/20 12:06:45;;;;;;;1.40;1.10;;;;;;;27.20;41.30;100106.59;4974404;28;20065;-68
2022/05/20 12:09:31;;;;;;;0.45;0.45;;;;;;;27.45;40.67;100104.13;4974524;28;20055;-68
2022/05/20 12:12:16;;;;;;;0.73;0.70;;;;;;;27.45;39.48;100100.69;4974615;28;20054;-68
2022/05/20 12:15:05;;;;;;;1.45;0.80;;;;;;;27.42;39.68;100101.72;4974683;28;20085;-69
2022/05/20 12:17:39;;;;;;;1.05;0.95;;;;;;;27.33;40.19;100091.75;4974329;28;20137;-68
2022/05/20 12:26:15;;;;;;;1.35;1.25;;;;;;;27.33;40.78;100090.94;4977859;28;20139;-69
2022/05/20 12:28:44;;;;;;;0.43;0.43;;;;;;;27.10;40.85;100079.25;4977947;28;20078;-68
2022/05/20 12:31:17;;;;;;;0.70;0.70;;;;;;;27.15;41.37;100077.19;4977578;28;20058;-69
2022/05/20 12:33:51;;;;;;;0.70;0.70;;;;;;;27.14;41.12;100071.09;4982254;28;20059;-68
2022/05/20 12:36:23;;;;;;;0.55;0.55;;;;;;;27.14;40.87;100065.00;4977667;28;20117;-68
2022/05/20 12:39:16;;;;;;;0.60;0.60;;;;;;;27.21;41.36;100067.16;4977623;28;20531;-68
2022/05/20 12:41:59;;;;;;;0.90;0.82;;;;;;;27.31;41.39;100067.41;4977618;28;20050;-68
2022/05/20 12:44:36;;;;;;;1.10;1.00;;;;;;;27.37;41.92;100061.78;4979014;28;20043;-67
2022/05/20 12:47:15;;;;;;;0.57;0.57;;;;;;;27.32;42.14;100065.63;4976266;28;20043;-69